Погода Мингунна неделю

Мандалай, Мьянма

04 - 10 марта
  • 04марта
    Сегодня
    +21°
    +38°
    Ясно и безоблачно
    ВремяПогодаТемператураВлажностьДавлениеВетер, м/сВероятность осадков
    00:30Ясно и безоблачно+26°C52 %750 мм1.5 м/с2 %
    03:30Ясно и безоблачно+23°C59 %750 мм1.3 м/с2 %
    06:30Ясно и безоблачно+21°C60 %752 мм0.4 м/с2 %
    09:30Ясно и безоблачно+28°C37 %753 мм0.8 м/с2 %
    12:30Ясно и безоблачно+34°C25 %752 мм1.0 м/с2 %
    15:30Ясно и безоблачно+37°C22 %749 мм1.4 м/с2 %
    18:30Ясно и безоблачно+33°C37 %749 мм0.6 м/с2 %
    21:30Ясно и безоблачно+29°C40 %751 мм2.0 м/с2 %
  • 05марта
    Вторник
    +22°
    +38°
    Ясно и безоблачно
    ВремяПогодаТемператураВлажностьДавлениеВетер, м/сВероятность осадков
    00:30Ясно и безоблачно+27°C44 %751 мм1.5 м/с2 %
    03:30Ясно и безоблачно+25°C56 %750 мм0.5 м/с2 %
    06:30Ясно и безоблачно+21°C69 %751 мм0.3 м/с2 %
    09:30Ясно и безоблачно+28°C43 %753 мм0.6 м/с2 %
    12:30Ясно и безоблачно+35°C26 %752 мм1.1 м/с2 %
    15:30Ясно и безоблачно+38°C24 %749 мм1.8 м/с2 %
    18:30Ясно и безоблачно+34°C37 %749 мм0.4 м/с2 %
    21:30Ясно и безоблачно+30°C39 %750 мм2.2 м/с2 %
  • 06марта
    Среда
    +20°
    +39°
    Ясно и безоблачно
    ВремяПогодаТемператураВлажностьДавлениеВетер, м/сВероятность осадков
    00:30Ясно и безоблачно+28°C48 %750 мм1.2 м/с2 %
    03:30Ясно и безоблачно+25°C56 %749 мм2.4 м/с2 %
    06:30Ясно и безоблачно+23°C59 %751 мм0.5 м/с2 %
    09:30Ясно и безоблачно+30°C39 %752 мм1.3 м/с2 %
    12:30Ясно и безоблачно+36°C21 %751 мм1.8 м/с2 %
    15:30Ясно и безоблачно+38°C18 %748 мм1.9 м/с2 %
    18:30Ясно и безоблачно+33°C33 %749 мм0.6 м/с2 %
    21:30Ясно и безоблачно+27°C39 %750 мм2.0 м/с2 %
  • 07марта
    Четверг
    +18°
    +39°
    Ясно и безоблачно
    ВремяПогодаТемператураВлажностьДавлениеВетер, м/сВероятность осадков
    00:30Ясно и безоблачно+23°C38 %749 мм1.5 м/с2 %
    03:30Ясно и безоблачно+22°C42 %748 мм2.3 м/с2 %
    06:30Ясно и безоблачно+20°C53 %750 мм0.1 м/с2 %
    09:30Ясно и безоблачно+27°C35 %752 мм0.7 м/с2 %
    12:30Ясно и безоблачно+35°C17 %751 мм1.1 м/с2 %
    15:30Ясно и безоблачно+39°C14 %748 мм1.6 м/с2 %
    18:30Ясно и безоблачно+33°C27 %748 мм0.7 м/с2 %
    21:30Ясно и безоблачно+27°C31 %750 мм1.3 м/с2 %
  • 08марта
    Пятница
    +19°
    +40°
    Ясно и безоблачно
    ВремяПогодаТемператураВлажностьДавлениеВетер, м/сВероятность осадков
    00:30Ясно и безоблачно+24°C32 %749 мм1.5 м/с2 %
    03:30Ясно и безоблачно+21°C44 %749 мм2.2 м/с2 %
    06:30Ясно и безоблачно+20°C53 %751 мм0.3 м/с2 %
    09:30Ясно и безоблачно+27°C36 %753 мм0.6 м/с2 %
    12:30Ясно и безоблачно+36°C14 %751 мм1.6 м/с2 %
    15:30Ясно и безоблачно+39°C10 %749 мм1.9 м/с2 %
    18:30Ясно и безоблачно+34°C22 %749 мм0.7 м/с2 %
    21:30Ясно и безоблачно+30°C23 %750 мм0.6 м/с2 %
Мы используем cookies
Соглашаюсь